Detall de PIREP

Printer-friendly versionPDF version

[2015/03/29 08:37:00]
Flight IATA:CT1004
Pilot Number:012
Company ICAO:CAT
Aircraft Type:C750/F
PAX:4
Departing Airport: EDDL
Destination Airport: LEBL
Alternate Airport:LEPA
Online: VATSIM
Route:MODRU Z283 SUMAS UZ283 RITAX UT27 GTQ UN852 DIVKO UN975 BISBA
Flight Level:F490
No Slew and time accel
No pause
Crash detect
Detect pilot in Cockpit between each 30 and 45 minutes
08:37 Zero fuel Weight: 22982 Lbs, Fuel Weight: 6666 Lbs
08:37 VATSIM:EDDL 290820Z 23015KT 9999 RA SCT011 BKN015 09/08 Q1004 TEMPO BKN013
08:37 VATSIM:LEBL 290800Z 26005KT 230V300 CAVOK 15/07 Q1022 NOSIG
08:37 EASTER CHARTER
08:37 Parking Brakes off
08:43 Take-off
08:43 Take off Weight: 29559 Lbs
08:43 Wind: 228º @ 015 Knots Heading: 232º
08:43 POS N51º 17´ 23´´ E006º 45´ 42´´
08:43 Gear Up: 160 Knots
08:43 Flaps:3 at 160 Knots
08:43 Flaps:0 at 176 Knots
08:58 Wind:292º@058 Knots Heading: 178º Ground Speed: 514 Knots Altitude 41174 ft
09:02 TOC
09:02 Fuel Weight: 5896 Lb
09:13 Wind:292º@032 Knots Heading: 184º Ground Speed: 522 Knots Altitude 48992 ft
09:28 Wind:302º@028 Knots Heading: 189º Ground Speed: 519 Knots Altitude 49156 ft
09:43 Wind:307º@028 Knots Heading: 204º Ground Speed: 508 Knots Altitude 49146 ft
09:52 TOD
09:52 Fuel Weight: 5071 Lb
09:58 Wind:337º@067 Knots Heading: 228º Ground Speed: 512 Knots Altitude 32588 ft
10:13 Wind:318º@026 Knots Heading: 229º Ground Speed: 222 Knots Altitude 6217 ft
10:17 Flaps:2 at 207 Knots
10:18 Flaps:3 at 211 Knots
10:18 Gear Down: 209 Knots
10:19 Flaps:4 at 163 Knots
10:19 Flaps:5 at 146 Knots
10:21 TouchDown:Rate -119 ft/min Speed: 124 Knots
10:21 VATSIM:LEBL 291000Z 19006KT 140V220 CAVOK 17/09 Q1022 NOSIG
10:21 Land
10:21 Wind:208º@006 Knots
10:21 Heading: 240º
10:21 Flight Duration: 01:38
10:21 Landing Weight: 27753 Lbs
10:21 POS N41º 17´ 52´´ E002º 04´ 50´´
10:22 Parking brakes on
10:22 Block to Block Duration: 01:45
10:22 Final Fuel: 4761 Lbls
10:22 Spent Fuel: 1904 Lbls
10:22 Flight Length: 718 NM
10:22 TOD Land Length: 164 NM

Exportar CSV

Powered by Drupal - Modified by Danger4k